sensor_id;sensor_type;location;lat;lon;timestamp;P1;durP1;ratioP1;P2;durP2;ratioP2
13834;SDS011;6988;52.614;13.500;2023-07-29T00:01:30;7.27;;;4.70;;
13834;SDS011;6988;52.614;13.500;2023-07-29T00:06:23;7.73;;;5.80;;
13834;SDS011;6988;52.614;13.500;2023-07-29T00:11:15;7.77;;;5.50;;
13834;SDS011;6988;52.614;13.500;2023-07-29T00:16:07;7.93;;;6.33;;
13834;SDS011;6988;52.614;13.500;2023-07-29T00:21:00;6.93;;;6.20;;
13834;SDS011;6988;52.614;13.500;2023-07-29T00:25:52;6.23;;;5.63;;
13834;SDS011;6988;52.614;13.500;2023-07-29T00:30:44;7.07;;;6.07;;
13834;SDS011;6988;52.614;13.500;2023-07-29T00:35:36;6.23;;;5.60;;
13834;SDS011;6988;52.614;13.500;2023-07-29T00:40:29;7.60;;;6.10;;
13834;SDS011;6988;52.614;13.500;2023-07-29T00:45:26;6.30;;;5.70;;
13834;SDS011;6988;52.614;13.500;2023-07-29T00:50:21;10.27;;;8.10;;
13834;SDS011;6988;52.614;13.500;2023-07-29T00:55:14;12.30;;;8.23;;
13834;SDS011;6988;52.614;13.500;2023-07-29T01:00:08;9.50;;;7.83;;
13834;SDS011;6988;52.614;13.500;2023-07-29T01:05:01;8.53;;;6.30;;
13834;SDS011;6988;52.614;13.500;2023-07-29T01:09:55;5.37;;;4.20;;
13834;SDS011;6988;52.614;13.500;2023-07-29T01:14:55;4.13;;;3.43;;
13834;SDS011;6988;52.614;13.500;2023-07-29T01:20:00;3.27;;;2.97;;
13834;SDS011;6988;52.614;13.500;2023-07-29T01:24:58;5.20;;;2.97;;
13834;SDS011;6988;52.614;13.500;2023-07-29T01:29:49;5.97;;;3.23;;
13834;SDS011;6988;52.614;13.500;2023-07-29T01:34:43;3.53;;;3.20;;
13834;SDS011;6988;52.614;13.500;2023-07-29T01:39:41;3.70;;;3.40;;
13834;SDS011;6988;52.614;13.500;2023-07-29T01:44:38;3.20;;;3.00;;
13834;SDS011;6988;52.614;13.500;2023-07-29T01:49:32;3.73;;;3.43;;
13834;SDS011;6988;52.614;13.500;2023-07-29T01:54:24;4.53;;;3.80;;
13834;SDS011;6988;52.614;13.500;2023-07-29T01:59:16;6.27;;;4.27;;
13834;SDS011;6988;52.614;13.500;2023-07-29T02:04:09;6.33;;;5.30;;
13834;SDS011;6988;52.614;13.500;2023-07-29T02:09:01;4.60;;;4.20;;
13834;SDS011;6988;52.614;13.500;2023-07-29T02:13:54;8.17;;;5.17;;
13834;SDS011;6988;52.614;13.500;2023-07-29T02:18:47;24.53;;;4.80;;
13834;SDS011;6988;52.614;13.500;2023-07-29T02:23:42;5.93;;;4.37;;
13834;SDS011;6988;52.614;13.500;2023-07-29T02:28:34;5.80;;;4.90;;
13834;SDS011;6988;52.614;13.500;2023-07-29T02:33:26;4.40;;;4.00;;
13834;SDS011;6988;52.614;13.500;2023-07-29T02:38:18;4.90;;;4.50;;
13834;SDS011;6988;52.614;13.500;2023-07-29T02:43:11;5.60;;;5.10;;
13834;SDS011;6988;52.614;13.500;2023-07-29T02:48:03;4.53;;;4.13;;
13834;SDS011;6988;52.614;13.500;2023-07-29T02:52:55;5.80;;;4.30;;
13834;SDS011;6988;52.614;13.500;2023-07-29T02:57:46;6.50;;;5.80;;
13834;SDS011;6988;52.614;13.500;2023-07-29T03:02:39;8.53;;;6.97;;
13834;SDS011;6988;52.614;13.500;2023-07-29T03:07:31;8.33;;;7.00;;
13834;SDS011;6988;52.614;13.500;2023-07-29T03:12:23;11.20;;;7.50;;
13834;SDS011;6988;52.614;13.500;2023-07-29T03:17:15;8.80;;;6.60;;
13834;SDS011;6988;52.614;13.500;2023-07-29T03:22:08;11.60;;;6.90;;
13834;SDS011;6988;52.614;13.500;2023-07-29T03:27:00;9.77;;;7.23;;
13834;SDS011;6988;52.614;13.500;2023-07-29T03:31:52;12.37;;;8.07;;
13834;SDS011;6988;52.614;13.500;2023-07-29T03:36:43;10.23;;;8.03;;
13834;SDS011;6988;52.614;13.500;2023-07-29T03:41:39;9.80;;;7.97;;
13834;SDS011;6988;52.614;13.500;2023-07-29T03:46:34;9.00;;;7.60;;
13834;SDS011;6988;52.614;13.500;2023-07-29T03:51:55;10.37;;;7.60;;
13834;SDS011;6988;52.614;13.500;2023-07-29T03:56:48;16.00;;;8.90;;
13834;SDS011;6988;52.614;13.500;2023-07-29T04:01:40;8.63;;;7.70;;
13834;SDS011;6988;52.614;13.500;2023-07-29T04:06:32;8.77;;;7.07;;
13834;SDS011;6988;52.614;13.500;2023-07-29T04:11:24;11.60;;;8.87;;
13834;SDS011;6988;52.614;13.500;2023-07-29T04:16:17;10.57;;;6.93;;
13834;SDS011;6988;52.614;13.500;2023-07-29T04:21:09;8.67;;;7.20;;
13834;SDS011;6988;52.614;13.500;2023-07-29T04:26:00;9.67;;;7.90;;
13834;SDS011;6988;52.614;13.500;2023-07-29T04:30:52;9.67;;;7.73;;
13834;SDS011;6988;52.614;13.500;2023-07-29T04:35:46;14.17;;;9.17;;
13834;SDS011;6988;52.614;13.500;2023-07-29T04:40:38;16.70;;;8.97;;
13834;SDS011;6988;52.614;13.500;2023-07-29T04:45:30;12.57;;;9.77;;
13834;SDS011;6988;52.614;13.500;2023-07-29T04:50:22;10.13;;;9.13;;
13834;SDS011;6988;52.614;13.500;2023-07-29T04:55:16;10.47;;;9.47;;
13834;SDS011;6988;52.614;13.500;2023-07-29T05:00:08;11.70;;;10.50;;
13834;SDS011;6988;52.614;13.500;2023-07-29T05:05:01;11.10;;;10.00;;
13834;SDS011;6988;52.614;13.500;2023-07-29T05:09:53;10.73;;;9.73;;
13834;SDS011;6988;52.614;13.500;2023-07-29T05:14:46;10.57;;;9.23;;
13834;SDS011;6988;52.614;13.500;2023-07-29T05:19:38;11.10;;;9.43;;
13834;SDS011;6988;52.614;13.500;2023-07-29T05:24:30;12.43;;;10.63;;
13834;SDS011;6988;52.614;13.500;2023-07-29T05:29:22;11.80;;;10.50;;
13834;SDS011;6988;52.614;13.500;2023-07-29T05:34:15;10.73;;;9.73;;
13834;SDS011;6988;52.614;13.500;2023-07-29T05:39:07;12.07;;;9.73;;
13834;SDS011;6988;52.614;13.500;2023-07-29T05:43:59;11.07;;;9.90;;
13834;SDS011;6988;52.614;13.500;2023-07-29T05:48:50;12.23;;;11.03;;
13834;SDS011;6988;52.614;13.500;2023-07-29T05:53:44;11.47;;;10.27;;
13834;SDS011;6988;52.614;13.500;2023-07-29T05:58:36;11.23;;;10.10;;
13834;SDS011;6988;52.614;13.500;2023-07-29T06:03:28;10.20;;;9.20;;
13834;SDS011;6988;52.614;13.500;2023-07-29T06:08:19;9.77;;;8.87;;
13834;SDS011;6988;52.614;13.500;2023-07-29T06:13:13;10.60;;;9.50;;
13834;SDS011;6988;52.614;13.500;2023-07-29T06:18:04;10.53;;;9.50;;
13834;SDS011;6988;52.614;13.500;2023-07-29T06:22:56;11.57;;;9.53;;
13834;SDS011;6988;52.614;13.500;2023-07-29T06:27:48;10.97;;;8.50;;
13834;SDS011;6988;52.614;13.500;2023-07-29T06:32:41;9.80;;;8.80;;
13834;SDS011;6988;52.614;13.500;2023-07-29T06:37:32;9.53;;;8.63;;
13834;SDS011;6988;52.614;13.500;2023-07-29T06:42:24;9.03;;;8.10;;
13834;SDS011;6988;52.614;13.500;2023-07-29T06:47:16;9.03;;;8.13;;
13834;SDS011;6988;52.614;13.500;2023-07-29T06:52:09;7.93;;;7.10;;
13834;SDS011;6988;52.614;13.500;2023-07-29T06:57:01;7.77;;;6.97;;
13834;SDS011;6988;52.614;13.500;2023-07-29T07:01:53;8.37;;;7.23;;
13834;SDS011;6988;52.614;13.500;2023-07-29T07:06:44;8.07;;;6.90;;
13834;SDS011;6988;52.614;13.500;2023-07-29T07:11:37;7.10;;;6.40;;
13834;SDS011;6988;52.614;13.500;2023-07-29T07:16:29;7.40;;;6.70;;
13834;SDS011;6988;52.614;13.500;2023-07-29T07:21:21;6.63;;;5.95;;
13834;SDS011;6988;52.614;13.500;2023-07-29T07:26:12;6.15;;;5.50;;
13834;SDS011;6988;52.614;13.500;2023-07-29T07:31:06;7.67;;;5.80;;
13834;SDS011;6988;52.614;13.500;2023-07-29T07:35:57;6.05;;;5.15;;
13834;SDS011;6988;52.614;13.500;2023-07-29T07:40:52;7.22;;;5.80;;
13834;SDS011;6988;52.614;13.500;2023-07-29T07:45:45;7.60;;;6.90;;
13834;SDS011;6988;52.614;13.500;2023-07-29T07:50:39;7.07;;;6.47;;
13834;SDS011;6988;52.614;13.500;2023-07-29T07:55:31;7.97;;;6.97;;
13834;SDS011;6988;52.614;13.500;2023-07-29T08:00:22;9.35;;;7.32;;
13834;SDS011;6988;52.614;13.500;2023-07-29T08:05:14;8.30;;;7.60;;
13834;SDS011;6988;52.614;13.500;2023-07-29T08:10:08;7.97;;;7.28;;
13834;SDS011;6988;52.614;13.500;2023-07-29T08:15:00;8.00;;;7.20;;
13834;SDS011;6988;52.614;13.500;2023-07-29T08:19:52;8.30;;;7.50;;
13834;SDS011;6988;52.614;13.500;2023-07-29T08:24:44;7.03;;;6.43;;
13834;SDS011;6988;52.614;13.500;2023-07-29T08:29:38;7.05;;;6.45;;
13834;SDS011;6988;52.614;13.500;2023-07-29T08:34:30;7.70;;;7.03;;
13834;SDS011;6988;52.614;13.500;2023-07-29T08:39:22;6.60;;;6.07;;
13834;SDS011;6988;52.614;13.500;2023-07-29T08:44:16;6.68;;;6.07;;
13834;SDS011;6988;52.614;13.500;2023-07-29T08:49:14;6.72;;;6.13;;
13834;SDS011;6988;52.614;13.500;2023-07-29T08:54:09;6.60;;;6.00;;
13834;SDS011;6988;52.614;13.500;2023-07-29T08:59:02;5.50;;;5.07;;
13834;SDS011;6988;52.614;13.500;2023-07-29T09:03:55;5.80;;;5.30;;
13834;SDS011;6988;52.614;13.500;2023-07-29T09:08:48;7.13;;;5.30;;
13834;SDS011;6988;52.614;13.500;2023-07-29T09:13:42;5.50;;;5.10;;
13834;SDS011;6988;52.614;13.500;2023-07-29T09:18:34;5.05;;;4.55;;
13834;SDS011;6988;52.614;13.500;2023-07-29T09:23:26;4.40;;;4.10;;
13834;SDS011;6988;52.614;13.500;2023-07-29T09:28:19;5.93;;;4.80;;
13834;SDS011;6988;52.614;13.500;2023-07-29T09:33:11;4.70;;;4.30;;
13834;SDS011;6988;52.614;13.500;2023-07-29T09:38:03;4.93;;;3.92;;
13834;SDS011;6988;52.614;13.500;2023-07-29T09:42:57;4.13;;;3.65;;
13834;SDS011;6988;52.614;13.500;2023-07-29T09:47:50;4.03;;;3.33;;
13834;SDS011;6988;52.614;13.500;2023-07-29T09:52:44;3.83;;;3.53;;
13834;SDS011;6988;52.614;13.500;2023-07-29T09:57:38;3.53;;;3.20;;
13834;SDS011;6988;52.614;13.500;2023-07-29T10:02:31;7.50;;;5.20;;
13834;SDS011;6988;52.614;13.500;2023-07-29T10:07:24;6.00;;;3.20;;
13834;SDS011;6988;52.614;13.500;2023-07-29T10:12:17;3.40;;;3.08;;
13834;SDS011;6988;52.614;13.500;2023-07-29T10:17:10;3.13;;;2.85;;
13834;SDS011;6988;52.614;13.500;2023-07-29T10:22:03;3.35;;;3.10;;
13834;SDS011;6988;52.614;13.500;2023-07-29T10:26:58;3.05;;;2.75;;
13834;SDS011;6988;52.614;13.500;2023-07-29T10:31:52;3.33;;;3.03;;
13834;SDS011;6988;52.614;13.500;2023-07-29T10:36:45;3.00;;;2.70;;
13834;SDS011;6988;52.614;13.500;2023-07-29T10:41:54;3.00;;;2.70;;
13834;SDS011;6988;52.614;13.500;2023-07-29T10:46:48;2.75;;;2.55;;
13834;SDS011;6988;52.614;13.500;2023-07-29T10:51:40;3.20;;;3.00;;
13834;SDS011;6988;52.614;13.500;2023-07-29T10:56:33;3.17;;;2.60;;
13834;SDS011;6988;52.614;13.500;2023-07-29T11:01:27;2.60;;;2.40;;
13834;SDS011;6988;52.614;13.500;2023-07-29T11:06:21;2.70;;;2.20;;
13834;SDS011;6988;52.614;13.500;2023-07-29T11:11:14;2.78;;;2.10;;
13834;SDS011;6988;52.614;13.500;2023-07-29T11:16:05;2.45;;;1.98;;
13834;SDS011;6988;52.614;13.500;2023-07-29T11:21:02;1.38;;;1.27;;
13834;SDS011;6988;52.614;13.500;2023-07-29T11:25:56;2.22;;;1.17;;
13834;SDS011;6988;52.614;13.500;2023-07-29T11:30:49;6.43;;;1.80;;
13834;SDS011;6988;52.614;13.500;2023-07-29T11:35:42;3.22;;;1.25;;
13834;SDS011;6988;52.614;13.500;2023-07-29T11:40:34;1.80;;;1.38;;
13834;SDS011;6988;52.614;13.500;2023-07-29T11:45:27;2.40;;;1.10;;
13834;SDS011;6988;52.614;13.500;2023-07-29T11:50:19;2.78;;;1.20;;
13834;SDS011;6988;52.614;13.500;2023-07-29T11:55:11;1.40;;;1.17;;
13834;SDS011;6988;52.614;13.500;2023-07-29T12:00:14;2.85;;;1.20;;
13834;SDS011;6988;52.614;13.500;2023-07-29T12:05:18;2.72;;;1.10;;
13834;SDS011;6988;52.614;13.500;2023-07-29T12:10:16;2.00;;;1.10;;
13834;SDS011;6988;52.614;13.500;2023-07-29T12:15:11;1.45;;;1.00;;
13834;SDS011;6988;52.614;13.500;2023-07-29T12:20:03;1.30;;;0.98;;
13834;SDS011;6988;52.614;13.500;2023-07-29T12:30:13;1.05;;;0.95;;
13834;SDS011;6988;52.614;13.500;2023-07-29T12:36:27;1.73;;;1.40;;
13834;SDS011;6988;52.614;13.500;2023-07-29T12:41:33;1.50;;;1.40;;
13834;SDS011;6988;52.614;13.500;2023-07-29T12:46:28;1.27;;;1.17;;
13834;SDS011;6988;52.614;13.500;2023-07-29T12:51:20;1.67;;;1.10;;
13834;SDS011;6988;52.614;13.500;2023-07-29T12:56:12;1.90;;;1.30;;
13834;SDS011;6988;52.614;13.500;2023-07-29T13:01:05;1.58;;;1.30;;
13834;SDS011;6988;52.614;13.500;2023-07-29T13:05:59;1.70;;;1.60;;
13834;SDS011;6988;52.614;13.500;2023-07-29T13:10:50;2.60;;;1.52;;
13834;SDS011;6988;52.614;13.500;2023-07-29T13:15:42;2.15;;;1.60;;
13834;SDS011;6988;52.614;13.500;2023-07-29T13:20:36;2.88;;;2.08;;
13834;SDS011;6988;52.614;13.500;2023-07-29T13:25:28;2.80;;;2.25;;
13834;SDS011;6988;52.614;13.500;2023-07-29T13:30:19;3.00;;;2.70;;
13834;SDS011;6988;52.614;13.500;2023-07-29T13:35:11;2.30;;;1.77;;
13834;SDS011;6988;52.614;13.500;2023-07-29T13:40:06;2.58;;;2.35;;
13834;SDS011;6988;52.614;13.500;2023-07-29T13:44:58;2.40;;;2.20;;
13834;SDS011;6988;52.614;13.500;2023-07-29T13:49:50;3.20;;;2.78;;
13834;SDS011;6988;52.614;13.500;2023-07-29T13:54:42;3.15;;;2.85;;
13834;SDS011;6988;52.614;13.500;2023-07-29T13:59:36;2.25;;;1.60;;
13834;SDS011;6988;52.614;13.500;2023-07-29T14:04:28;2.22;;;1.33;;
13834;SDS011;6988;52.614;13.500;2023-07-29T14:09:21;1.73;;;1.50;;
13834;SDS011;6988;52.614;13.500;2023-07-29T14:14:12;2.72;;;2.25;;
13834;SDS011;6988;52.614;13.500;2023-07-29T14:19:06;1.65;;;1.40;;
13834;SDS011;6988;52.614;13.500;2023-07-29T14:23:58;1.52;;;1.42;;
13834;SDS011;6988;52.614;13.500;2023-07-29T14:28:50;1.73;;;1.63;;
13834;SDS011;6988;52.614;13.500;2023-07-29T14:33:41;1.90;;;1.08;;
13834;SDS011;6988;52.614;13.500;2023-07-29T14:38:34;1.08;;;0.98;;
13834;SDS011;6988;52.614;13.500;2023-07-29T14:43:27;3.20;;;2.65;;
13834;SDS011;6988;52.614;13.500;2023-07-29T14:48:19;2.85;;;1.20;;
13834;SDS011;6988;52.614;13.500;2023-07-29T14:53:11;1.98;;;1.10;;
13834;SDS011;6988;52.614;13.500;2023-07-29T14:58:04;1.50;;;1.40;;
13834;SDS011;6988;52.614;13.500;2023-07-29T15:02:56;1.63;;;1.48;;
13834;SDS011;6988;52.614;13.500;2023-07-29T15:07:47;1.73;;;1.33;;
13834;SDS011;6988;52.614;13.500;2023-07-29T15:12:39;1.20;;;1.10;;
13834;SDS011;6988;52.614;13.500;2023-07-29T15:17:32;1.38;;;1.27;;
13834;SDS011;6988;52.614;13.500;2023-07-29T15:22:24;1.30;;;1.20;;
13834;SDS011;6988;52.614;13.500;2023-07-29T15:27:16;1.92;;;1.35;;
13834;SDS011;6988;52.614;13.500;2023-07-29T15:32:08;3.58;;;2.10;;
13834;SDS011;6988;52.614;13.500;2023-07-29T15:37:02;2.35;;;1.50;;
13834;SDS011;6988;52.614;13.500;2023-07-29T15:41:55;1.40;;;1.30;;
13834;SDS011;6988;52.614;13.500;2023-07-29T15:46:47;1.60;;;1.50;;
13834;SDS011;6988;52.614;13.500;2023-07-29T15:51:41;1.88;;;1.75;;
13834;SDS011;6988;52.614;13.500;2023-07-29T15:56:34;3.78;;;1.73;;
13834;SDS011;6988;52.614;13.500;2023-07-29T16:01:28;1.90;;;1.70;;
13834;SDS011;6988;52.614;13.500;2023-07-29T16:06:20;2.05;;;1.75;;
13834;SDS011;6988;52.614;13.500;2023-07-29T16:11:12;3.80;;;2.85;;
13834;SDS011;6988;52.614;13.500;2023-07-29T16:16:05;3.33;;;2.40;;
13834;SDS011;6988;52.614;13.500;2023-07-29T16:20:57;2.35;;;2.00;;
13834;SDS011;6988;52.614;13.500;2023-07-29T16:25:51;2.53;;;2.10;;
13834;SDS011;6988;52.614;13.500;2023-07-29T16:30:43;4.22;;;2.03;;
13834;SDS011;6988;52.614;13.500;2023-07-29T16:35:37;1.90;;;1.70;;
13834;SDS011;6988;52.614;13.500;2023-07-29T16:40:29;2.30;;;1.50;;
13834;SDS011;6988;52.614;13.500;2023-07-29T16:45:21;2.85;;;1.90;;
13834;SDS011;6988;52.614;13.500;2023-07-29T16:50:13;2.13;;;1.90;;
13834;SDS011;6988;52.614;13.500;2023-07-29T16:55:07;4.55;;;1.75;;
13834;SDS011;6988;52.614;13.500;2023-07-29T17:00:00;2.17;;;1.90;;
13834;SDS011;6988;52.614;13.500;2023-07-29T17:04:51;2.58;;;2.00;;
13834;SDS011;6988;52.614;13.500;2023-07-29T17:09:43;2.33;;;2.13;;
13834;SDS011;6988;52.614;13.500;2023-07-29T17:14:37;2.72;;;2.10;;
13834;SDS011;6988;52.614;13.500;2023-07-29T17:19:28;3.15;;;2.22;;
13834;SDS011;6988;52.614;13.500;2023-07-29T17:24:20;2.80;;;2.20;;
13834;SDS011;6988;52.614;13.500;2023-07-29T17:29:12;2.45;;;2.25;;
13834;SDS011;6988;52.614;13.500;2023-07-29T17:34:06;4.00;;;2.70;;
13834;SDS011;6988;52.614;13.500;2023-07-29T17:38:57;2.78;;;2.50;;
13834;SDS011;6988;52.614;13.500;2023-07-29T17:43:49;3.67;;;2.90;;
13834;SDS011;6988;52.614;13.500;2023-07-29T17:48:41;3.33;;;3.03;;
13834;SDS011;6988;52.614;13.500;2023-07-29T17:53:34;4.03;;;3.20;;
13834;SDS011;6988;52.614;13.500;2023-07-29T17:58:25;3.63;;;3.08;;
13834;SDS011;6988;52.614;13.500;2023-07-29T18:03:17;5.50;;;3.05;;
13834;SDS011;6988;52.614;13.500;2023-07-29T18:08:09;4.77;;;3.60;;
13834;SDS011;6988;52.614;13.500;2023-07-29T18:13:02;6.05;;;3.97;;
13834;SDS011;6988;52.614;13.500;2023-07-29T18:17:54;3.95;;;3.55;;
13834;SDS011;6988;52.614;13.500;2023-07-29T18:22:46;4.87;;;3.60;;
13834;SDS011;6988;52.614;13.500;2023-07-29T18:27:38;5.73;;;3.30;;
13834;SDS011;6988;52.614;13.500;2023-07-29T18:32:31;4.10;;;3.40;;
13834;SDS011;6988;52.614;13.500;2023-07-29T18:37:23;5.23;;;3.80;;
13834;SDS011;6988;52.614;13.500;2023-07-29T18:42:15;6.83;;;3.57;;
13834;SDS011;6988;52.614;13.500;2023-07-29T18:47:07;4.97;;;3.70;;
13834;SDS011;6988;52.614;13.500;2023-07-29T18:52:01;5.32;;;3.92;;
13834;SDS011;6988;52.614;13.500;2023-07-29T18:56:52;6.35;;;4.07;;
13834;SDS011;6988;52.614;13.500;2023-07-29T19:01:45;5.93;;;4.20;;
13834;SDS011;6988;52.614;13.500;2023-07-29T19:06:37;4.55;;;4.13;;
13834;SDS011;6988;52.614;13.500;2023-07-29T19:11:30;5.28;;;4.18;;
13834;SDS011;6988;52.614;13.500;2023-07-29T19:16:22;5.30;;;4.55;;
13834;SDS011;6988;52.614;13.500;2023-07-29T19:21:14;5.03;;;4.47;;
13834;SDS011;6988;52.614;13.500;2023-07-29T19:26:09;4.93;;;4.43;;
13834;SDS011;6988;52.614;13.500;2023-07-29T19:31:02;6.43;;;5.00;;
13834;SDS011;6988;52.614;13.500;2023-07-29T19:35:54;6.53;;;4.63;;
13834;SDS011;6988;52.614;13.500;2023-07-29T19:40:48;5.63;;;4.53;;
13834;SDS011;6988;52.614;13.500;2023-07-29T19:45:44;5.63;;;4.57;;
13834;SDS011;6988;52.614;13.500;2023-07-29T19:50:38;5.17;;;4.67;;
13834;SDS011;6988;52.614;13.500;2023-07-29T19:55:30;4.57;;;4.17;;
13834;SDS011;6988;52.614;13.500;2023-07-29T20:00:22;4.87;;;4.43;;
13834;SDS011;6988;52.614;13.500;2023-07-29T20:05:14;5.10;;;4.43;;
13834;SDS011;6988;52.614;13.500;2023-07-29T20:10:07;6.20;;;5.00;;
13834;SDS011;6988;52.614;13.500;2023-07-29T20:15:00;6.10;;;5.30;;
13834;SDS011;6988;52.614;13.500;2023-07-29T20:19:53;6.03;;;5.07;;
13834;SDS011;6988;52.614;13.500;2023-07-29T20:24:44;6.70;;;5.13;;
13834;SDS011;6988;52.614;13.500;2023-07-29T20:29:38;6.10;;;4.80;;
13834;SDS011;6988;52.614;13.500;2023-07-29T20:34:30;6.07;;;4.70;;
13834;SDS011;6988;52.614;13.500;2023-07-29T20:39:22;7.40;;;5.17;;
13834;SDS011;6988;52.614;13.500;2023-07-29T20:44:14;6.57;;;5.77;;
13834;SDS011;6988;52.614;13.500;2023-07-29T20:49:07;7.57;;;5.83;;
13834;SDS011;6988;52.614;13.500;2023-07-29T20:53:58;6.33;;;5.50;;
13834;SDS011;6988;52.614;13.500;2023-07-29T20:58:50;6.43;;;5.83;;
13834;SDS011;6988;52.614;13.500;2023-07-29T21:03:42;6.57;;;5.57;;
13834;SDS011;6988;52.614;13.500;2023-07-29T21:08:35;5.63;;;5.10;;
13834;SDS011;6988;52.614;13.500;2023-07-29T21:13:27;7.87;;;6.10;;
13834;SDS011;6988;52.614;13.500;2023-07-29T21:18:18;6.97;;;5.37;;
13834;SDS011;6988;52.614;13.500;2023-07-29T21:23:11;6.37;;;5.70;;
13834;SDS011;6988;52.614;13.500;2023-07-29T21:28:04;6.37;;;4.87;;
13834;SDS011;6988;52.614;13.500;2023-07-29T21:32:56;6.67;;;5.00;;
13834;SDS011;6988;52.614;13.500;2023-07-29T21:37:49;7.73;;;5.50;;
13834;SDS011;6988;52.614;13.500;2023-07-29T21:42:40;6.60;;;6.00;;
13834;SDS011;6988;52.614;13.500;2023-07-29T22:04:33;8.77;;;6.70;;
13834;SDS011;6988;52.614;13.500;2023-07-29T22:09:25;7.37;;;6.67;;
13834;SDS011;6988;52.614;13.500;2023-07-29T22:14:17;7.20;;;6.57;;
13834;SDS011;6988;52.614;13.500;2023-07-29T22:19:09;7.20;;;6.50;;
13834;SDS011;6988;52.614;13.500;2023-07-29T22:24:03;6.97;;;6.23;;
13834;SDS011;6988;52.614;13.500;2023-07-29T22:28:55;6.53;;;5.93;;
13834;SDS011;6988;52.614;13.500;2023-07-29T22:33:47;8.37;;;6.67;;
13834;SDS011;6988;52.614;13.500;2023-07-29T22:38:39;7.63;;;6.47;;
13834;SDS011;6988;52.614;13.500;2023-07-29T22:43:32;9.07;;;6.40;;
13834;SDS011;6988;52.614;13.500;2023-07-29T22:48:25;9.27;;;7.77;;
13834;SDS011;6988;52.614;13.500;2023-07-29T22:53:18;8.37;;;6.70;;
13834;SDS011;6988;52.614;13.500;2023-07-29T22:58:12;8.27;;;6.53;;
13834;SDS011;6988;52.614;13.500;2023-07-29T23:03:05;7.00;;;5.63;;
13834;SDS011;6988;52.614;13.500;2023-07-29T23:07:57;6.07;;;5.47;;
13834;SDS011;6988;52.614;13.500;2023-07-29T23:12:49;7.43;;;5.63;;
13834;SDS011;6988;52.614;13.500;2023-07-29T23:17:41;6.00;;;5.40;;
13834;SDS011;6988;52.614;13.500;2023-07-29T23:22:34;6.23;;;5.27;;
13834;SDS011;6988;52.614;13.500;2023-07-29T23:27:26;7.00;;;6.30;;
13834;SDS011;6988;52.614;13.500;2023-07-29T23:32:18;7.07;;;6.27;;
13834;SDS011;6988;52.614;13.500;2023-07-29T23:37:10;7.30;;;6.43;;
13834;SDS011;6988;52.614;13.500;2023-07-29T23:42:04;8.00;;;6.43;;
13834;SDS011;6988;52.614;13.500;2023-07-29T23:46:56;9.27;;;6.10;;
13834;SDS011;6988;52.614;13.500;2023-07-29T23:51:48;6.47;;;4.73;;
13834;SDS011;6988;52.614;13.500;2023-07-29T23:56:40;6.13;;;5.03;;
